createdAt,value
2017-12-01T00:00:41.422Z,8.00
2017-12-01T00:01:41.438Z,4.00
2017-12-01T00:02:41.454Z,8.00
2017-12-01T00:03:41.469Z,4.00
2017-12-01T00:04:41.492Z,4.00
2017-12-01T00:05:41.500Z,8.00
2017-12-01T00:06:41.517Z,4.00
2017-12-01T00:07:41.533Z,8.00
2017-12-01T00:08:41.549Z,8.00
2017-12-01T00:09:41.564Z,4.00
2017-12-01T00:10:41.580Z,4.00
2017-12-01T00:11:41.596Z,4.00
2017-12-01T00:12:41.612Z,4.00
2017-12-01T00:13:41.626Z,4.00
2017-12-01T00:14:41.641Z,4.00
2017-12-01T00:15:41.658Z,4.00
2017-12-01T00:16:41.675Z,4.00
2017-12-01T00:17:41.694Z,4.00
2017-12-01T00:18:41.704Z,4.00
2017-12-01T00:19:41.721Z,4.00
2017-12-01T00:20:41.737Z,4.00
2017-12-01T00:21:41.752Z,4.00
2017-12-01T00:22:41.767Z,4.00
2017-12-01T00:23:41.785Z,4.00
2017-12-01T00:24:41.801Z,4.00
2017-12-01T00:25:41.814Z,4.00
2017-12-01T00:26:41.831Z,4.00
2017-12-01T00:27:41.847Z,4.00
2017-12-01T00:28:41.862Z,4.00
2017-12-01T00:29:41.881Z,4.00
2017-12-01T00:30:41.893Z,4.00
2017-12-01T00:31:41.908Z,4.00
2017-12-01T00:32:41.925Z,4.00
2017-12-01T00:33:41.939Z,4.00
2017-12-01T00:34:41.954Z,4.00
2017-12-01T00:35:41.978Z,4.00
2017-12-01T00:36:41.986Z,4.00
2017-12-01T00:37:42.002Z,4.00
2017-12-01T00:38:42.017Z,4.00
2017-12-01T00:39:42.034Z,4.00
2017-12-01T00:40:42.049Z,4.00
2017-12-01T00:41:42.066Z,4.00
2017-12-01T00:42:42.080Z,4.00
2017-12-01T00:43:42.094Z,4.00
2017-12-01T00:44:42.111Z,4.00
2017-12-01T00:45:42.125Z,4.00
2017-12-01T00:46:42.142Z,4.00
2017-12-01T00:47:42.158Z,4.00
2017-12-01T00:48:42.172Z,4.00
2017-12-01T00:49:42.187Z,4.00
2017-12-01T00:50:42.204Z,4.00
2017-12-01T00:51:42.218Z,4.00
2017-12-01T00:52:42.235Z,4.00
2017-12-01T00:53:42.250Z,4.00
2017-12-01T00:54:42.265Z,4.00
2017-12-01T00:55:42.281Z,4.00
2017-12-01T00:56:42.296Z,4.00
2017-12-01T00:57:42.310Z,4.00
2017-12-01T00:58:42.328Z,4.00
2017-12-01T00:59:42.342Z,4.00
2017-12-01T01:00:42.357Z,4.00
2017-12-01T01:01:42.372Z,4.00
2017-12-01T01:02:42.388Z,4.00
2017-12-01T01:03:42.405Z,4.00
2017-12-01T01:04:42.420Z,4.00
2017-12-01T01:05:42.434Z,4.00
2017-12-01T01:06:42.551Z,4.00
2017-12-01T01:07:42.466Z,4.00
2017-12-01T01:08:42.482Z,4.00
2017-12-01T01:09:42.497Z,4.00
2017-12-01T01:10:42.512Z,4.00
2017-12-01T01:11:42.537Z,4.00
2017-12-01T01:12:42.550Z,4.00
2017-12-01T01:13:42.557Z,4.00
2017-12-01T01:14:42.573Z,4.00
2017-12-01T01:15:42.590Z,4.00
2017-12-01T01:16:42.606Z,4.00
2017-12-01T01:17:42.621Z,4.00
2017-12-01T01:18:42.636Z,4.00
2017-12-01T01:19:42.653Z,4.00
2017-12-01T01:20:42.666Z,4.00
2017-12-01T01:21:42.682Z,4.00
2017-12-01T01:22:42.697Z,4.00
2017-12-01T01:23:42.714Z,4.00
2017-12-01T01:24:42.730Z,4.00
2017-12-01T01:25:42.743Z,4.00
2017-12-01T01:26:42.760Z,4.00
2017-12-01T01:27:42.776Z,4.00
2017-12-01T01:28:42.790Z,4.00
2017-12-01T01:29:42.807Z,4.00
2017-12-01T01:30:42.822Z,4.00
2017-12-01T01:31:42.840Z,4.00
2017-12-01T01:32:42.855Z,4.00
2017-12-01T01:33:42.869Z,4.00
2017-12-01T01:34:42.883Z,4.00
2017-12-01T01:35:42.901Z,4.00
2017-12-01T01:36:42.914Z,4.00
2017-12-01T01:37:42.931Z,4.00
2017-12-01T01:38:42.946Z,4.00
2017-12-01T01:39:42.961Z,4.00
2017-12-01T01:40:42.978Z,4.00
2017-12-01T01:41:42.991Z,4.00
2017-12-01T01:42:43.008Z,4.00
2017-12-01T01:43:43.024Z,4.00
2017-12-01T01:44:43.038Z,4.00
2017-12-01T01:45:43.055Z,4.00
2017-12-01T01:46:43.070Z,4.00
2017-12-01T01:47:43.086Z,4.00
2017-12-01T01:48:43.101Z,4.00
2017-12-01T01:49:43.116Z,4.00
2017-12-01T01:50:43.432Z,4.00
2017-12-01T01:51:43.147Z,4.00
2017-12-01T01:52:43.164Z,4.00
2017-12-01T01:53:43.177Z,4.00
2017-12-01T01:54:43.195Z,4.00
2017-12-01T01:55:43.210Z,4.00
2017-12-01T01:56:43.224Z,4.00
2017-12-01T01:57:43.239Z,4.00
2017-12-01T01:58:43.254Z,4.00
2017-12-01T01:59:43.271Z,4.00
2017-12-01T02:00:43.286Z,4.00
2017-12-01T02:01:43.305Z,4.00
2017-12-01T02:02:43.316Z,4.00
2017-12-01T02:03:43.332Z,4.00
2017-12-01T02:04:43.348Z,4.00
2017-12-01T02:05:43.362Z,4.00
2017-12-01T02:06:43.379Z,4.00
2017-12-01T02:07:43.393Z,4.00
2017-12-01T02:08:43.409Z,4.00
2017-12-01T02:09:43.424Z,4.00
2017-12-01T02:10:43.441Z,4.00
2017-12-01T02:11:43.455Z,4.00
2017-12-01T02:12:43.472Z,4.00
2017-12-01T02:13:43.485Z,4.00
2017-12-01T02:14:43.503Z,4.00
2017-12-01T02:15:43.566Z,4.00
2017-12-01T02:16:43.533Z,4.00
2017-12-01T02:17:43.548Z,4.00
2017-12-01T02:18:43.563Z,4.00
2017-12-01T02:19:43.580Z,4.00
2017-12-01T02:20:43.595Z,4.00
2017-12-01T02:21:43.609Z,4.00
2017-12-01T02:22:43.625Z,4.00
2017-12-01T02:23:43.642Z,4.00
2017-12-01T02:24:43.657Z,4.00
2017-12-01T02:25:43.671Z,4.00
2017-12-01T02:26:43.687Z,4.00
2017-12-01T02:27:43.703Z,4.00
2017-12-01T02:28:43.719Z,4.00
2017-12-01T02:29:43.732Z,4.00
2017-12-01T02:30:43.750Z,4.00
2017-12-01T02:31:43.765Z,4.00
2017-12-01T02:32:43.781Z,4.00
2017-12-01T02:33:43.794Z,4.00
2017-12-01T02:34:43.810Z,4.00
2017-12-01T02:35:43.826Z,4.00
2017-12-01T02:36:43.841Z,4.00
2017-12-01T02:37:43.856Z,4.00
2017-12-01T02:38:43.874Z,4.00
2017-12-01T02:39:43.894Z,4.00
2017-12-01T02:40:43.908Z,4.00
2017-12-01T02:41:43.920Z,4.00
2017-12-01T02:42:43.939Z,4.00
2017-12-01T02:43:43.951Z,4.00
2017-12-01T02:44:43.964Z,4.00
2017-12-01T02:45:43.985Z,4.00
2017-12-01T02:46:43.994Z,4.00
2017-12-01T02:47:44.015Z,4.00
2017-12-01T02:48:44.026Z,4.00
2017-12-01T02:49:44.040Z,4.00
2017-12-01T02:50:44.056Z,4.00
2017-12-01T02:51:44.072Z,4.00
2017-12-01T02:52:44.086Z,4.00
2017-12-01T02:53:44.105Z,4.00
2017-12-01T02:54:44.117Z,4.00
2017-12-01T02:55:44.133Z,4.00
2017-12-01T02:56:44.148Z,4.00
2017-12-01T02:57:44.165Z,4.00
2017-12-01T02:58:44.178Z,4.00
2017-12-01T02:59:44.193Z,4.00
2017-12-01T03:00:44.209Z,4.00
2017-12-01T03:01:44.223Z,4.00
2017-12-01T03:02:44.238Z,4.00
2017-12-01T03:03:44.255Z,4.00
2017-12-01T03:04:44.271Z,4.00
2017-12-01T03:05:44.285Z,4.00
2017-12-01T03:06:44.300Z,4.00
2017-12-01T03:07:44.316Z,4.00
2017-12-01T03:08:44.331Z,4.00
2017-12-01T03:09:44.346Z,4.00
2017-12-01T03:10:44.361Z,4.00
2017-12-01T03:11:44.376Z,4.00
2017-12-01T03:12:44.393Z,4.00
2017-12-01T03:13:44.407Z,4.00
2017-12-01T03:14:44.473Z,4.00
2017-12-01T03:15:44.438Z,4.00
2017-12-01T03:16:44.454Z,4.00
2017-12-01T03:17:44.469Z,4.00
2017-12-01T03:18:44.484Z,4.00
2017-12-01T03:19:44.499Z,4.00
2017-12-01T03:20:44.516Z,4.00
2017-12-01T03:21:44.531Z,4.00
2017-12-01T03:22:44.546Z,4.00
2017-12-01T03:23:44.561Z,4.00
2017-12-01T03:24:44.577Z,4.00
2017-12-01T03:25:44.593Z,4.00
2017-12-01T03:26:44.608Z,4.00
2017-12-01T03:27:44.624Z,4.00
2017-12-01T03:28:44.640Z,4.00
2017-12-01T03:29:44.656Z,4.00
2017-12-01T03:30:44.672Z,4.00
2017-12-01T03:31:44.686Z,4.00
2017-12-01T03:32:44.705Z,4.00
2017-12-01T03:33:44.716Z,4.00
2017-12-01T03:34:44.731Z,4.00
2017-12-01T03:35:44.748Z,4.00
2017-12-01T03:36:44.762Z,4.00
2017-12-01T03:37:44.779Z,4.00
2017-12-01T03:38:44.794Z,4.00
2017-12-01T03:39:44.809Z,4.00
2017-12-01T03:40:44.825Z,4.00
2017-12-01T03:41:44.840Z,4.00
2017-12-01T03:42:45.055Z,4.00
2017-12-01T03:43:44.871Z,4.00
2017-12-01T03:44:44.886Z,4.00
2017-12-01T03:45:44.901Z,4.00
2017-12-01T03:46:44.917Z,4.00
2017-12-01T03:47:44.932Z,4.00
2017-12-01T03:48:44.948Z,4.00
2017-12-01T03:49:44.964Z,4.00
2017-12-01T03:50:44.978Z,4.00
2017-12-01T03:51:44.993Z,4.00
2017-12-01T03:52:45.009Z,4.00
2017-12-01T03:53:45.028Z,4.00
2017-12-01T03:54:45.041Z,4.00
2017-12-01T03:55:45.055Z,4.00
2017-12-01T03:56:45.071Z,4.00
2017-12-01T03:57:45.086Z,4.00
2017-12-01T03:58:45.102Z,4.00
2017-12-01T03:59:45.117Z,4.00
2017-12-01T04:00:45.132Z,4.00
2017-12-01T04:01:45.147Z,4.00
2017-12-01T04:02:45.164Z,4.00
2017-12-01T04:03:45.178Z,4.00
2017-12-01T04:04:45.194Z,4.00
2017-12-01T04:05:45.209Z,4.00
2017-12-01T04:06:45.227Z,4.00
2017-12-01T04:07:45.240Z,4.00
2017-12-01T04:08:45.255Z,4.00
2017-12-01T04:09:45.270Z,4.00
2017-12-01T04:10:45.286Z,4.00
2017-12-01T04:11:45.302Z,4.00
2017-12-01T04:12:45.316Z,4.00
2017-12-01T04:13:45.333Z,4.00
2017-12-01T04:14:45.347Z,4.00
2017-12-01T04:15:45.371Z,4.00
2017-12-01T04:16:45.379Z,4.00
2017-12-01T04:17:45.393Z,4.00
2017-12-01T04:18:45.411Z,4.00
2017-12-01T04:19:45.425Z,4.00
2017-12-01T04:20:45.440Z,4.00
2017-12-01T04:21:45.555Z,4.00
2017-12-01T04:22:45.472Z,4.00
2017-12-01T04:23:45.486Z,4.00
2017-12-01T04:24:45.508Z,4.00
2017-12-01T04:25:45.516Z,4.00
2017-12-01T04:26:45.532Z,4.00
2017-12-01T04:27:45.548Z,4.00
2017-12-01T04:28:45.579Z,4.00
2017-12-01T04:29:45.580Z,4.00
2017-12-01T04:30:45.594Z,4.00
2017-12-01T04:31:45.616Z,4.00
2017-12-01T04:32:45.628Z,4.00
2017-12-01T04:33:45.641Z,4.00
2017-12-01T04:34:45.656Z,4.00
2017-12-01T04:35:45.672Z,4.00
2017-12-01T04:36:45.688Z,4.00
2017-12-01T04:37:45.704Z,4.00
2017-12-01T04:38:45.724Z,8.00
2017-12-01T04:39:45.736Z,4.00
2017-12-01T04:40:45.750Z,4.00
2017-12-01T04:41:45.766Z,4.00
2017-12-01T04:42:45.782Z,4.00
2017-12-01T04:43:45.797Z,4.00
2017-12-01T04:44:45.813Z,4.00
2017-12-01T04:45:45.826Z,4.00
2017-12-01T04:46:45.865Z,4.00
2017-12-01T04:47:45.859Z,4.00
2017-12-01T04:48:45.874Z,4.00
2017-12-01T04:49:45.890Z,4.00
2017-12-01T04:50:45.905Z,4.00
2017-12-01T04:51:45.921Z,4.00
2017-12-01T04:52:45.937Z,4.00
2017-12-01T04:53:45.951Z,4.00
2017-12-01T04:54:45.967Z,4.00
2017-12-01T04:55:45.984Z,4.00
2017-12-01T04:56:46.000Z,4.00
2017-12-01T04:57:46.013Z,4.00
2017-12-01T04:58:46.030Z,4.00
2017-12-01T04:59:46.046Z,4.00
2017-12-01T05:00:46.061Z,4.00
2017-12-01T05:01:46.077Z,4.00
2017-12-01T05:02:46.092Z,4.00
2017-12-01T05:03:46.108Z,4.00
2017-12-01T05:04:46.125Z,4.00
2017-12-01T05:05:46.139Z,4.00
2017-12-01T05:06:46.154Z,4.00
2017-12-01T05:07:46.221Z,4.00
2017-12-01T05:08:46.184Z,4.00
2017-12-01T05:09:46.200Z,4.00
2017-12-01T05:10:46.216Z,4.00
2017-12-01T05:11:46.232Z,4.00
2017-12-01T05:12:46.247Z,4.00
2017-12-01T05:13:46.261Z,4.00
2017-12-01T05:14:46.276Z,4.00
2017-12-01T05:15:46.293Z,4.00
2017-12-01T05:16:46.310Z,4.00
2017-12-01T05:17:46.324Z,4.00
2017-12-01T05:18:46.339Z,4.00
2017-12-01T05:19:46.354Z,4.00
2017-12-01T05:20:46.371Z,8.00
2017-12-01T05:21:46.635Z,4.00
2017-12-01T05:22:46.402Z,4.00
2017-12-01T05:23:46.416Z,4.00
2017-12-01T05:24:46.433Z,4.00
2017-12-01T05:25:46.451Z,4.00
2017-12-01T05:26:46.463Z,4.00
2017-12-01T05:27:46.478Z,4.00
2017-12-01T05:28:46.494Z,4.00
2017-12-01T05:29:46.509Z,4.00
2017-12-01T05:30:46.529Z,4.00
2017-12-01T05:31:46.541Z,4.00
2017-12-01T05:32:46.555Z,4.00
2017-12-01T05:33:46.571Z,4.00
2017-12-01T05:34:46.586Z,4.00
2017-12-01T05:35:46.602Z,4.00
2017-12-01T05:36:46.617Z,4.00
2017-12-01T05:37:46.632Z,4.00
2017-12-01T05:38:46.649Z,8.00
2017-12-01T05:39:46.664Z,4.00
2017-12-01T05:40:46.680Z,4.00
2017-12-01T05:41:46.695Z,4.00
2017-12-01T05:42:46.710Z,4.00
2017-12-01T05:43:46.725Z,4.00
2017-12-01T05:44:46.741Z,8.00
2017-12-01T05:45:46.756Z,4.00
2017-12-01T05:46:46.771Z,4.00
2017-12-01T05:47:46.847Z,4.00
2017-12-01T05:48:46.804Z,4.00
2017-12-01T05:49:46.818Z,4.00
2017-12-01T05:50:46.834Z,4.00
2017-12-01T05:51:46.849Z,4.00
2017-12-01T05:52:46.866Z,4.00
2017-12-01T05:53:46.881Z,4.00
2017-12-01T05:54:46.901Z,4.00
2017-12-01T05:55:46.912Z,4.00
2017-12-01T05:56:46.927Z,4.00
2017-12-01T05:57:46.942Z,4.00
2017-12-01T05:58:46.957Z,4.00
2017-12-01T05:59:46.973Z,4.00
2017-12-01T06:00:46.989Z,4.00
2017-12-01T06:01:47.003Z,4.00
2017-12-01T06:02:47.019Z,4.00
2017-12-01T06:03:47.040Z,8.00
2017-12-01T06:04:47.051Z,4.00
2017-12-01T06:05:47.065Z,4.00
2017-12-01T06:06:47.081Z,4.00
2017-12-01T06:07:47.096Z,8.00
2017-12-01T06:08:47.112Z,4.00
2017-12-01T06:09:47.129Z,4.00
2017-12-01T06:10:47.142Z,4.00
2017-12-01T06:11:47.162Z,8.00
2017-12-01T06:12:47.172Z,4.00
2017-12-01T06:13:47.187Z,4.00
2017-12-01T06:14:47.204Z,4.00
2017-12-01T06:15:47.220Z,4.00
2017-12-01T06:16:47.234Z,4.00
2017-12-01T06:17:47.249Z,4.00
2017-12-01T06:18:47.264Z,4.00
2017-12-01T06:19:47.280Z,4.00
2017-12-01T06:20:47.295Z,4.00
2017-12-01T06:21:47.310Z,4.00
2017-12-01T06:22:47.327Z,4.00
2017-12-01T06:23:47.341Z,4.00
2017-12-01T06:24:47.358Z,4.00
2017-12-01T06:25:47.371Z,4.00
2017-12-01T06:26:47.388Z,4.00
2017-12-01T06:27:47.405Z,4.00
2017-12-01T06:28:47.418Z,4.00
2017-12-01T06:29:47.434Z,4.00
2017-12-01T06:30:47.551Z,8.00
2017-12-01T06:31:47.464Z,4.00
2017-12-01T06:32:47.480Z,8.00
2017-12-01T06:33:47.495Z,8.00
2017-12-01T06:34:47.512Z,8.00
2017-12-01T06:35:47.527Z,8.00
2017-12-01T06:36:47.541Z,8.00
2017-12-01T06:37:47.556Z,8.00
2017-12-01T06:38:47.572Z,4.00
2017-12-01T06:39:47.586Z,4.00
2017-12-01T06:40:47.603Z,8.00
2017-12-01T06:41:47.619Z,4.00
2017-12-01T06:42:47.633Z,8.00
2017-12-01T06:43:47.649Z,8.00
2017-12-01T06:44:47.665Z,8.00
2017-12-01T06:45:47.678Z,8.00
2017-12-01T06:46:47.695Z,8.00
2017-12-01T06:47:47.717Z,8.00
2017-12-01T06:48:47.725Z,8.00
2017-12-01T06:49:47.739Z,8.00
2017-12-01T06:50:47.756Z,8.00
2017-12-01T06:51:47.803Z,12.00
2017-12-01T06:52:47.788Z,12.00
2017-12-01T06:53:47.801Z,12.00
2017-12-01T06:54:47.817Z,12.00
2017-12-01T06:55:47.833Z,16.00
2017-12-01T06:56:47.852Z,16.00
2017-12-01T06:57:47.864Z,12.00
2017-12-01T06:58:47.879Z,12.00
2017-12-01T06:59:47.895Z,16.00
2017-12-01T07:00:47.910Z,16.00
2017-12-01T07:01:47.925Z,20.00
2017-12-01T07:02:47.939Z,20.00
2017-12-01T07:03:47.955Z,24.00
2017-12-01T07:04:47.971Z,28.00
2017-12-01T07:05:47.986Z,32.00
2017-12-01T07:06:48.002Z,36.00
2017-12-01T07:07:48.018Z,44.00
2017-12-01T07:08:48.033Z,48.00
2017-12-01T07:09:48.048Z,48.00
2017-12-01T07:10:48.062Z,56.00
2017-12-01T07:11:48.079Z,64.00
2017-12-01T07:12:48.094Z,68.00
2017-12-01T07:13:48.109Z,76.00
2017-12-01T07:14:48.124Z,84.00
2017-12-01T07:15:48.147Z,92.00
2017-12-01T07:16:48.155Z,100.00
2017-12-01T07:17:48.171Z,104.00
2017-12-01T07:18:48.186Z,116.00
2017-12-01T07:19:48.201Z,120.00
2017-12-01T07:20:48.217Z,128.00
2017-12-01T07:21:48.235Z,140.00
2017-12-01T07:22:48.247Z,144.00
2017-12-01T07:23:48.264Z,152.00
2017-12-01T07:24:48.279Z,164.00
2017-12-01T07:25:48.294Z,168.00
2017-12-01T07:26:48.310Z,172.00
2017-12-01T07:27:48.325Z,184.00
2017-12-01T07:28:48.341Z,188.00
2017-12-01T07:29:48.356Z,196.00
2017-12-01T07:30:48.372Z,200.00
2017-12-01T07:31:48.386Z,208.00
2017-12-01T07:32:48.401Z,228.00
2017-12-01T07:33:48.416Z,244.00
2017-12-01T07:34:48.436Z,268.00
2017-12-01T07:35:48.447Z,284.00
2017-12-01T07:36:48.463Z,296.00
2017-12-01T07:37:48.478Z,308.00
2017-12-01T07:38:48.494Z,320.00
2017-12-01T07:39:48.510Z,336.00
2017-12-01T07:40:48.524Z,352.00
2017-12-01T07:41:48.540Z,376.00
2017-12-01T07:42:48.756Z,400.00
2017-12-01T07:43:48.571Z,424.00
2017-12-01T07:44:48.587Z,448.00
2017-12-01T07:45:48.601Z,468.00
2017-12-01T07:46:48.616Z,488.00
2017-12-01T07:47:48.634Z,496.00
2017-12-01T07:48:48.648Z,488.00
2017-12-01T07:49:48.663Z,460.00
2017-12-01T07:50:48.678Z,472.00
2017-12-01T07:51:48.693Z,476.00
2017-12-01T07:52:48.709Z,472.00
2017-12-01T07:53:48.725Z,504.00
2017-12-01T07:54:48.740Z,524.00
2017-12-01T07:55:48.755Z,560.00
2017-12-01T07:56:48.772Z,592.00
2017-12-01T07:57:48.787Z,576.00
2017-12-01T07:58:48.802Z,544.00
2017-12-01T07:59:48.818Z,532.00
2017-12-01T08:00:48.833Z,568.00
2017-12-01T08:01:48.850Z,568.00
2017-12-01T08:02:48.864Z,540.00
2017-12-01T08:03:48.880Z,500.00
2017-12-01T08:04:48.896Z,504.00
2017-12-01T08:05:48.912Z,488.00
2017-12-01T08:06:48.926Z,524.00
2017-12-01T08:07:48.941Z,544.00
2017-12-01T08:08:49.059Z,560.00
2017-12-01T08:09:48.971Z,648.00
2017-12-01T08:10:48.988Z,664.00
2017-12-01T08:11:49.005Z,712.00
2017-12-01T08:12:49.020Z,784.00
2017-12-01T08:13:49.036Z,776.00
2017-12-01T08:14:49.050Z,796.00
2017-12-01T08:15:49.064Z,736.00
2017-12-01T08:16:49.082Z,724.00
2017-12-01T08:17:49.095Z,680.00
2017-12-01T08:18:49.110Z,620.00
2017-12-01T08:19:49.127Z,616.00
2017-12-01T08:20:49.143Z,588.00
2017-12-01T08:21:49.157Z,548.00
2017-12-01T08:22:49.178Z,556.00
2017-12-01T08:23:49.190Z,616.00
2017-12-01T08:24:49.206Z,636.00
2017-12-01T08:25:49.223Z,680.00
2017-12-01T08:26:49.239Z,752.00
2017-12-01T08:27:49.251Z,792.00
2017-12-01T08:28:49.267Z,784.00
2017-12-01T08:29:49.284Z,808.00
2017-12-01T08:30:49.298Z,824.00
2017-12-01T08:31:49.314Z,764.00
2017-12-01T08:32:49.330Z,820.00
2017-12-01T08:33:49.346Z,840.00
2017-12-01T08:34:49.361Z,820.00
2017-12-01T08:35:49.376Z,868.00
2017-12-01T08:36:49.393Z,888.00
2017-12-01T08:37:49.406Z,944.00
2017-12-01T08:38:49.422Z,1036.00
2017-12-01T08:39:49.444Z,1112.00
2017-12-01T08:40:49.457Z,1128.00
2017-12-01T08:41:49.470Z,1180.00
2017-12-01T08:42:49.485Z,1284.00
2017-12-01T08:43:49.502Z,1408.00
2017-12-01T08:44:49.517Z,1504.00
2017-12-01T08:45:49.531Z,1596.00
2017-12-01T08:46:49.549Z,1656.00
2017-12-01T08:47:49.564Z,1680.00
2017-12-01T08:48:49.578Z,1708.00
2017-12-01T08:49:49.593Z,1728.00
2017-12-01T08:50:49.611Z,1732.00
2017-12-01T08:51:49.625Z,1680.00
2017-12-01T08:52:49.646Z,1676.00
2017-12-01T08:53:49.656Z,1688.00
2017-12-01T08:54:49.672Z,1668.00
2017-12-01T08:55:49.689Z,1656.00
2017-12-01T08:56:49.704Z,1628.00
2017-12-01T08:57:49.718Z,1648.00
2017-12-01T08:58:49.735Z,1668.00
2017-12-01T08:59:49.751Z,1664.00
2017-12-01T09:00:49.766Z,1684.00
2017-12-01T09:01:49.782Z,1732.00
2017-12-01T09:02:49.799Z,1732.00
2017-12-01T09:03:49.814Z,1676.00
2017-12-01T09:04:49.880Z,1612.00
2017-12-01T09:05:49.844Z,1556.00
2017-12-01T09:06:49.862Z,1532.00
2017-12-01T09:07:49.878Z,1564.00
2017-12-01T09:08:49.900Z,1656.00
2017-12-01T09:09:49.908Z,1640.00
2017-12-01T09:10:49.923Z,1644.00
2017-12-01T09:11:49.940Z,1668.00
2017-12-01T09:12:49.956Z,1688.00
2017-12-01T09:13:49.970Z,1712.00
2017-12-01T09:14:49.986Z,1772.00
2017-12-01T09:15:50.004Z,1800.00
2017-12-01T09:16:50.018Z,1800.00
2017-12-01T09:17:50.032Z,1792.00
2017-12-01T09:18:50.049Z,1760.00
2017-12-01T09:19:50.065Z,1780.00
2017-12-01T09:20:50.119Z,1844.00
2017-12-01T09:21:50.095Z,1944.00
2017-12-01T09:22:50.112Z,2012.00
2017-12-01T09:23:50.127Z,2084.00
2017-12-01T09:24:50.143Z,2164.00
2017-12-01T09:25:50.159Z,2232.00
2017-12-01T09:26:50.173Z,2308.00
2017-12-01T09:27:50.193Z,2356.00
2017-12-01T09:28:50.205Z,2440.00
2017-12-01T09:29:50.225Z,2532.00
2017-12-01T09:30:50.240Z,2564.00
2017-12-01T09:31:50.253Z,2592.00
2017-12-01T09:32:50.269Z,2588.00
2017-12-01T09:33:50.283Z,2588.00
2017-12-01T09:34:50.299Z,2584.00
2017-12-01T09:35:50.315Z,2688.00
2017-12-01T09:36:50.332Z,2788.00
2017-12-01T09:37:50.347Z,3008.00
2017-12-01T09:38:50.363Z,3280.00
2017-12-01T09:39:50.379Z,3440.00
2017-12-01T09:40:50.396Z,3328.00
2017-12-01T09:41:50.410Z,3396.00
2017-12-01T09:42:50.426Z,3692.00
2017-12-01T09:43:50.442Z,4092.00
2017-12-01T09:44:50.458Z,4588.00
2017-12-01T09:45:50.475Z,4328.00
2017-12-01T09:46:50.491Z,3112.00
2017-12-01T09:47:50.506Z,3048.00
2017-12-01T09:48:50.524Z,3312.00
2017-12-01T09:49:50.611Z,3496.00
2017-12-01T09:50:50.556Z,3364.00
2017-12-01T09:51:50.570Z,3052.00
2017-12-01T09:52:50.588Z,2832.00
2017-12-01T09:53:50.605Z,2744.00
2017-12-01T09:54:50.620Z,2780.00
2017-12-01T09:55:50.637Z,2816.00
2017-12-01T09:56:50.654Z,2836.00
2017-12-01T09:57:50.669Z,2792.00
2017-12-01T09:58:50.683Z,2760.00
2017-12-01T09:59:50.702Z,2832.00
2017-12-01T10:00:50.718Z,2976.00
2017-12-01T10:01:50.741Z,3072.00
2017-12-01T10:02:50.749Z,3144.00
2017-12-01T10:03:50.765Z,3328.00
2017-12-01T10:04:50.782Z,3832.00
2017-12-01T10:05:50.801Z,4288.00
2017-12-01T10:06:50.814Z,4604.00
2017-12-01T10:07:50.834Z,4680.00
2017-12-01T10:08:50.846Z,4552.00
2017-12-01T10:09:50.862Z,4492.00
2017-12-01T10:10:50.878Z,4684.00
2017-12-01T10:11:50.895Z,4684.00
2017-12-01T10:12:50.912Z,4640.00
2017-12-01T10:13:50.927Z,4676.00
2017-12-01T10:14:50.945Z,4704.00
2017-12-01T10:15:50.961Z,4780.00
2017-12-01T10:16:50.976Z,4852.00
2017-12-01T10:17:50.992Z,4840.00
2017-12-01T10:18:51.009Z,4604.00
2017-12-01T10:19:51.026Z,4408.00
2017-12-01T10:20:51.042Z,4848.00
2017-12-01T10:21:51.059Z,4852.00
2017-12-01T10:22:51.076Z,4808.00
2017-12-01T10:23:51.092Z,4732.00
2017-12-01T10:24:51.116Z,4264.00
2017-12-01T10:25:51.125Z,4672.00
2017-12-01T10:26:51.143Z,3788.00
2017-12-01T10:27:51.159Z,3952.00
2017-12-01T10:28:51.177Z,4080.00
2017-12-01T10:29:51.196Z,4168.00
2017-12-01T10:30:51.213Z,4716.00
2017-12-01T10:31:51.233Z,4000.00
2017-12-01T10:32:51.243Z,4460.00
2017-12-01T10:33:51.262Z,4796.00
2017-12-01T10:34:51.278Z,4960.00
2017-12-01T10:35:51.295Z,4792.00
2017-12-01T10:36:51.312Z,4304.00
2017-12-01T10:37:51.328Z,4208.00
2017-12-01T10:38:51.345Z,4440.00
2017-12-01T10:39:51.360Z,4856.00
2017-12-01T10:40:51.384Z,4412.00
2017-12-01T10:41:51.395Z,4252.00
2017-12-01T10:42:51.411Z,4096.00
2017-12-01T10:43:51.428Z,4276.00
2017-12-01T10:44:51.445Z,4448.00
2017-12-01T10:45:51.461Z,4204.00
2017-12-01T10:46:51.479Z,4452.00
2017-12-01T10:47:51.495Z,5464.00
2017-12-01T10:48:51.512Z,4748.00
2017-12-01T10:49:51.529Z,5436.00
2017-12-01T10:50:51.545Z,5436.00
2017-12-01T10:51:51.564Z,6120.00
2017-12-01T10:52:51.622Z,6916.00
2017-12-01T10:53:51.602Z,6616.00
2017-12-01T10:54:51.613Z,5388.00
2017-12-01T10:55:51.631Z,3988.00
2017-12-01T10:56:51.646Z,4632.00
2017-12-01T10:57:51.663Z,4608.00
2017-12-01T10:58:51.682Z,4364.00
2017-12-01T10:59:51.697Z,4612.00
2017-12-01T11:00:51.750Z,4172.00
2017-12-01T11:01:51.731Z,4460.00
2017-12-01T11:02:51.748Z,4952.00
2017-12-01T11:03:51.766Z,4700.00
2017-12-01T11:04:51.783Z,4608.00
2017-12-01T11:05:51.798Z,4796.00
2017-12-01T11:06:51.815Z,4580.00
2017-12-01T11:07:51.834Z,4148.00
2017-12-01T11:08:51.850Z,4308.00
2017-12-01T11:09:51.866Z,4348.00
2017-12-01T11:10:51.884Z,4372.00
2017-12-01T11:11:51.899Z,4956.00
2017-12-01T11:12:51.917Z,4360.00
2017-12-01T11:13:51.932Z,4988.00
2017-12-01T11:14:51.950Z,5128.00
2017-12-01T11:15:51.967Z,5056.00
2017-12-01T11:16:51.995Z,4976.00
2017-12-01T11:17:51.999Z,5188.00
2017-12-01T11:18:52.016Z,5560.00
2017-12-01T11:19:52.033Z,5788.00
2017-12-01T11:20:52.051Z,5856.00
2017-12-01T11:21:52.065Z,6080.00
2017-12-01T11:22:52.083Z,6204.00
2017-12-01T11:23:52.102Z,6336.00
2017-12-01T11:24:52.116Z,6124.00
2017-12-01T11:25:52.133Z,5744.00
2017-12-01T11:26:52.151Z,5516.00
2017-12-01T11:27:52.168Z,5268.00
2017-12-01T11:28:52.186Z,5036.00
2017-12-01T11:29:52.201Z,5468.00
2017-12-01T11:30:52.228Z,5432.00
2017-12-01T11:31:52.286Z,5304.00
2017-12-01T11:32:52.252Z,5404.00
2017-12-01T11:33:52.270Z,5480.00
2017-12-01T11:34:52.286Z,5508.00
2017-12-01T11:35:52.306Z,5512.00
2017-12-01T11:36:52.321Z,5168.00
2017-12-01T11:37:52.338Z,5308.00
2017-12-01T11:38:52.355Z,5376.00
2017-12-01T11:39:52.373Z,5248.00
2017-12-01T11:40:52.390Z,5120.00
2017-12-01T11:41:52.406Z,4552.00
2017-12-01T11:42:52.422Z,4388.00
2017-12-01T11:43:52.441Z,4204.00
2017-12-01T11:44:52.457Z,4268.00
2017-12-01T11:45:52.473Z,4000.00
2017-12-01T11:46:52.492Z,4144.00
2017-12-01T11:47:52.508Z,3788.00
2017-12-01T11:48:52.525Z,3776.00
2017-12-01T11:49:52.541Z,3744.00
2017-12-01T11:50:52.558Z,3712.00
2017-12-01T11:51:52.575Z,3712.00
2017-12-01T11:52:52.598Z,3744.00
2017-12-01T11:53:52.610Z,3776.00
2017-12-01T11:54:52.626Z,3788.00
2017-12-01T11:55:52.692Z,3780.00
2017-12-01T11:56:52.662Z,3856.00
2017-12-01T11:57:52.679Z,3972.00
2017-12-01T11:58:52.696Z,4120.00
2017-12-01T11:59:52.720Z,4284.00
2017-12-01T12:00:52.730Z,4488.00
2017-12-01T12:01:52.746Z,4552.00
2017-12-01T12:02:52.763Z,4508.00
2017-12-01T12:03:52.780Z,4432.00
2017-12-01T12:04:52.797Z,4416.00
2017-12-01T12:05:52.813Z,4380.00
2017-12-01T12:06:52.830Z,4424.00
2017-12-01T12:07:52.848Z,4424.00
2017-12-01T12:08:52.864Z,4580.00
2017-12-01T12:09:52.880Z,4536.00
2017-12-01T12:10:52.897Z,4564.00
2017-12-01T12:11:52.915Z,4620.00
2017-12-01T12:12:52.932Z,4576.00
2017-12-01T12:13:52.948Z,4468.00
2017-12-01T12:14:52.965Z,4308.00
2017-12-01T12:15:52.982Z,4572.00
2017-12-01T12:16:53.000Z,4628.00
2017-12-01T12:17:53.015Z,4380.00
2017-12-01T12:18:53.033Z,4104.00
2017-12-01T12:19:53.049Z,3892.00
2017-12-01T12:20:53.067Z,3668.00
2017-12-01T12:21:53.084Z,3468.00
2017-12-01T12:22:53.101Z,3300.00
2017-12-01T12:23:53.119Z,3204.00
2017-12-01T12:24:53.135Z,3000.00
2017-12-01T12:25:53.153Z,2456.00
2017-12-01T12:26:53.170Z,2520.00
2017-12-01T12:27:53.186Z,2488.00
2017-12-01T12:28:53.203Z,2424.00
2017-12-01T12:29:53.221Z,2460.00
2017-12-01T12:30:53.237Z,2872.00
2017-12-01T12:31:53.254Z,2968.00
2017-12-01T12:32:53.274Z,3028.00
2017-12-01T12:33:53.287Z,2980.00
2017-12-01T12:34:53.306Z,2936.00
2017-12-01T12:35:53.322Z,2816.00
2017-12-01T12:36:53.340Z,2616.00
2017-12-01T12:37:53.355Z,2188.00
2017-12-01T12:38:53.372Z,2220.00
2017-12-01T12:39:53.390Z,2136.00
2017-12-01T12:40:53.408Z,2060.00
2017-12-01T12:41:53.424Z,1956.00
2017-12-01T12:42:53.439Z,1816.00
2017-12-01T12:43:53.457Z,1680.00
2017-12-01T12:44:53.476Z,1660.00
2017-12-01T12:45:53.490Z,1716.00
2017-12-01T12:46:53.507Z,1752.00
2017-12-01T12:47:53.526Z,1732.00